createdAt,value
2019-01-18T00:00:38.146Z,94986
2019-01-18T00:01:47.659Z,94980
2019-01-18T00:02:57.179Z,94987
2019-01-18T00:04:06.741Z,94985
2019-01-18T00:05:16.253Z,94986
2019-01-18T00:06:25.775Z,94986
2019-01-18T00:07:35.276Z,94982
2019-01-18T00:08:44.820Z,94985
2019-01-18T00:09:54.376Z,94983
2019-01-18T00:11:03.887Z,94982
2019-01-18T00:12:13.400Z,94984
2019-01-18T00:13:22.939Z,94989
2019-01-18T00:14:32.449Z,94985
2019-01-18T00:15:41.978Z,94981
2019-01-18T00:16:51.527Z,94980
2019-01-18T00:18:01.051Z,94980
2019-01-18T00:19:10.574Z,94986
2019-01-18T00:20:20.117Z,94987
2019-01-18T00:21:29.649Z,94991
2019-01-18T00:22:39.164Z,94991
2019-01-18T00:23:48.691Z,94992
2019-01-18T00:24:58.214Z,94984
2019-01-18T00:26:07.719Z,94990
2019-01-18T00:27:17.238Z,94988
2019-01-18T00:28:25.776Z,94991
2019-01-18T00:29:35.309Z,94994
2019-01-18T00:30:44.845Z,94988
2019-01-18T00:31:54.366Z,94992
2019-01-18T00:33:03.900Z,94995
2019-01-18T00:34:13.458Z,94997
2019-01-18T00:35:22.983Z,94998
2019-01-18T00:36:32.497Z,95002
2019-01-18T00:37:42.035Z,94996
2019-01-18T00:38:51.568Z,94998
2019-01-18T00:40:01.084Z,95000
2019-01-18T00:41:10.597Z,94997
2019-01-18T00:42:20.120Z,94998
2019-01-18T00:43:29.650Z,94999
2019-01-18T00:44:39.146Z,95004
2019-01-18T00:45:48.681Z,95003
2019-01-18T00:46:58.209Z,94998
2019-01-18T00:48:07.745Z,95000
2019-01-18T00:49:17.296Z,95003
2019-01-18T00:50:26.811Z,95018
2019-01-18T00:51:36.332Z,95005
2019-01-18T00:52:45.835Z,95005
2019-01-18T00:53:55.361Z,94998
2019-01-18T00:55:04.877Z,95003
2019-01-18T00:56:14.421Z,95007
2019-01-18T00:57:23.925Z,94997
2019-01-18T00:58:33.448Z,95008
2019-01-18T00:59:42.977Z,95008
2019-01-18T01:00:52.501Z,95003
2019-01-18T01:02:01.998Z,95005
2019-01-18T01:03:11.575Z,95015
2019-01-18T01:04:21.102Z,95009
2019-01-18T01:05:30.616Z,95008
2019-01-18T01:06:40.188Z,95004
2019-01-18T01:07:49.717Z,95010
2019-01-18T01:08:59.276Z,95022
2019-01-18T01:10:08.805Z,95021
2019-01-18T01:11:18.372Z,95023
2019-01-18T01:12:27.897Z,95023
2019-01-18T01:13:37.460Z,95036
2019-01-18T01:14:46.988Z,95043
2019-01-18T01:15:56.517Z,95047
2019-01-18T01:17:06.066Z,95046
2019-01-18T01:18:15.602Z,95045
2019-01-18T01:19:25.126Z,95056
2019-01-18T01:20:34.655Z,95049
2019-01-18T01:21:44.170Z,95054
2019-01-18T01:22:53.669Z,95043
2019-01-18T01:24:03.213Z,95063
2019-01-18T01:25:12.737Z,95060
2019-01-18T01:26:22.267Z,95062
2019-01-18T01:27:31.792Z,95055
2019-01-18T01:28:41.325Z,95059
2019-01-18T01:29:50.843Z,95060
2019-01-18T01:31:01.354Z,95055
2019-01-18T01:32:10.879Z,95065
2019-01-18T01:33:20.437Z,95067
2019-01-18T01:34:29.975Z,95058
2019-01-18T01:35:39.519Z,95062
2019-01-18T01:36:49.065Z,95060
2019-01-18T01:37:58.580Z,95059
2019-01-18T01:39:08.118Z,95050
2019-01-18T01:40:17.636Z,95058
2019-01-18T01:41:27.141Z,95055
2019-01-18T01:42:36.659Z,95058
2019-01-18T01:43:46.221Z,95056
2019-01-18T01:44:55.774Z,95053
2019-01-18T01:46:05.295Z,95057
2019-01-18T01:47:14.801Z,95051
2019-01-18T01:48:24.352Z,95054
2019-01-18T01:49:33.893Z,95054
2019-01-18T01:50:43.410Z,95054
2019-01-18T01:51:52.921Z,95064
2019-01-18T01:53:02.431Z,95058
2019-01-18T01:54:11.968Z,95059
2019-01-18T01:55:21.505Z,95060
2019-01-18T01:56:31.007Z,95061
2019-01-18T01:57:40.517Z,95056
2019-01-18T01:58:50.092Z,95063
2019-01-18T01:59:59.658Z,95059
2019-01-18T02:01:09.188Z,95059
2019-01-18T02:02:18.710Z,95056
2019-01-18T02:03:28.259Z,95055
2019-01-18T02:04:37.791Z,95062
2019-01-18T02:05:47.294Z,95069
2019-01-18T02:06:56.803Z,95056
2019-01-18T02:08:06.345Z,95066
2019-01-18T02:09:16.560Z,95083
2019-01-18T02:10:25.405Z,95079
2019-01-18T02:11:34.940Z,95091
2019-01-18T02:12:44.441Z,95098
2019-01-18T02:13:53.973Z,95096
2019-01-18T02:15:03.490Z,95100
2019-01-18T02:16:13.000Z,95093
2019-01-18T02:17:22.544Z,95095
2019-01-18T02:18:32.071Z,95097
2019-01-18T02:19:41.629Z,95099
2019-01-18T02:20:51.168Z,95100
2019-01-18T02:22:00.711Z,95103
2019-01-18T02:23:10.226Z,95103
2019-01-18T02:24:19.778Z,95107
2019-01-18T02:25:29.290Z,95102
2019-01-18T02:26:38.830Z,95104
2019-01-18T02:27:48.483Z,95109
2019-01-18T02:28:58.042Z,95114
2019-01-18T02:30:07.580Z,95115
2019-01-18T02:31:17.140Z,95119
2019-01-18T02:32:26.653Z,95115
2019-01-18T02:33:36.187Z,95115
2019-01-18T02:34:45.723Z,95115
2019-01-18T02:35:55.271Z,95115
2019-01-18T02:37:04.792Z,95117
2019-01-18T02:38:14.324Z,95119
2019-01-18T02:39:23.871Z,95114
2019-01-18T02:40:33.389Z,95123
2019-01-18T02:41:43.145Z,95119
2019-01-18T02:42:52.627Z,95128
2019-01-18T02:44:02.173Z,95125
2019-01-18T02:45:11.696Z,95130
2019-01-18T02:46:21.251Z,95131
2019-01-18T02:47:30.798Z,95132
2019-01-18T02:48:40.348Z,95122
2019-01-18T02:49:49.897Z,95131
2019-01-18T02:50:59.429Z,95128
2019-01-18T02:52:08.979Z,95125
2019-01-18T02:53:18.482Z,95127
2019-01-18T02:54:27.985Z,95121
2019-01-18T02:55:37.545Z,95122
2019-01-18T02:56:47.092Z,95128
2019-01-18T02:57:56.621Z,95126
2019-01-18T02:59:06.140Z,95128
2019-01-18T03:00:15.658Z,95126
2019-01-18T03:01:25.181Z,95125
2019-01-18T03:02:34.722Z,95129
2019-01-18T03:03:44.270Z,95125
2019-01-18T03:04:53.787Z,95123
2019-01-18T03:06:03.309Z,95122
2019-01-18T03:07:12.830Z,95130
2019-01-18T03:08:22.349Z,95128
2019-01-18T03:09:31.874Z,95123
2019-01-18T03:10:41.445Z,95123
2019-01-18T03:11:50.957Z,95123
2019-01-18T03:13:00.476Z,95124
2019-01-18T03:14:09.993Z,95132
2019-01-18T03:15:19.528Z,95125
2019-01-18T03:16:30.038Z,95125
2019-01-18T03:17:39.593Z,95129
2019-01-18T03:18:49.151Z,95130
2019-01-18T03:19:58.688Z,95128
2019-01-18T03:21:08.194Z,95122
2019-01-18T03:22:17.737Z,95133
2019-01-18T03:23:27.250Z,95134
2019-01-18T03:24:36.795Z,95134
2019-01-18T03:25:46.327Z,95136
2019-01-18T03:26:55.857Z,95127
2019-01-18T03:28:05.389Z,95126
2019-01-18T03:29:14.913Z,95129
2019-01-18T03:30:24.447Z,95132
2019-01-18T03:31:33.980Z,95133
2019-01-18T03:32:43.490Z,95138
2019-01-18T03:33:53.026Z,95140
2019-01-18T03:35:02.546Z,95139
2019-01-18T03:36:12.098Z,95148
2019-01-18T03:37:21.649Z,95140
2019-01-18T03:38:31.181Z,95148
2019-01-18T03:39:40.686Z,95151
2019-01-18T03:40:50.225Z,95154
2019-01-18T03:41:59.758Z,95163
2019-01-18T03:43:09.270Z,95162
2019-01-18T03:44:18.779Z,95162
2019-01-18T03:45:28.308Z,95162
2019-01-18T03:46:37.854Z,95165
2019-01-18T03:47:47.380Z,95168
2019-01-18T03:48:56.928Z,95164
2019-01-18T03:50:06.477Z,95174
2019-01-18T03:51:16.033Z,95169
2019-01-18T03:52:25.580Z,95177
2019-01-18T03:53:35.110Z,95178
2019-01-18T03:54:44.671Z,95177
2019-01-18T03:55:54.217Z,95183
2019-01-18T03:57:03.751Z,95185
2019-01-18T03:58:13.267Z,95178
2019-01-18T03:59:22.791Z,95194
2019-01-18T04:00:32.318Z,95183
2019-01-18T04:01:41.864Z,95187
2019-01-18T04:02:51.384Z,95190
2019-01-18T04:04:00.895Z,95188
2019-01-18T04:05:10.407Z,95188
2019-01-18T04:06:19.919Z,95202
2019-01-18T04:07:29.464Z,95194
2019-01-18T04:08:38.997Z,95193
2019-01-18T04:09:48.589Z,95199
2019-01-18T04:10:58.124Z,95197
2019-01-18T04:12:07.627Z,95201
2019-01-18T04:13:17.155Z,95202
2019-01-18T04:14:26.663Z,95201
2019-01-18T04:15:36.203Z,95203
2019-01-18T04:16:45.703Z,95204
2019-01-18T04:17:55.220Z,95206
2019-01-18T04:19:04.755Z,95211
2019-01-18T04:20:14.285Z,95221
2019-01-18T04:21:23.861Z,95208
2019-01-18T04:22:33.378Z,95213
2019-01-18T04:23:42.894Z,95212
2019-01-18T04:24:52.441Z,95217
2019-01-18T04:26:01.978Z,95225
2019-01-18T04:27:11.495Z,95222
2019-01-18T04:28:21.025Z,95224
2019-01-18T04:29:30.562Z,95226
2019-01-18T04:30:40.079Z,95233
2019-01-18T04:31:49.640Z,95245
2019-01-18T04:32:59.169Z,95240
2019-01-18T04:34:09.674Z,95228
2019-01-18T04:35:19.216Z,95236
2019-01-18T04:36:28.747Z,95233
2019-01-18T04:37:38.250Z,95244
2019-01-18T04:38:47.784Z,95230
2019-01-18T04:39:57.319Z,95237
2019-01-18T04:41:06.867Z,95243
2019-01-18T04:42:16.388Z,95239
2019-01-18T04:43:25.929Z,95245
2019-01-18T04:44:35.474Z,95246
2019-01-18T04:45:44.989Z,95251
2019-01-18T04:46:54.574Z,95250
2019-01-18T04:48:04.095Z,95256
2019-01-18T04:49:13.652Z,95260
2019-01-18T04:50:23.157Z,95262
2019-01-18T04:51:32.703Z,95269
2019-01-18T04:52:42.223Z,95268
2019-01-18T04:53:52.046Z,95273
2019-01-18T04:55:01.602Z,95277
2019-01-18T04:56:11.135Z,95289
2019-01-18T04:57:20.677Z,95284
2019-01-18T04:58:30.194Z,95279
2019-01-18T04:59:39.731Z,95281
2019-01-18T05:00:49.276Z,95279
2019-01-18T05:01:58.830Z,95281
2019-01-18T05:03:08.362Z,95281
2019-01-18T05:04:17.922Z,95281
2019-01-18T05:05:27.450Z,95288
2019-01-18T05:06:36.987Z,95290
2019-01-18T05:07:46.502Z,95287
2019-01-18T05:08:56.073Z,95286
2019-01-18T05:10:05.578Z,95282
2019-01-18T05:11:15.105Z,95287
2019-01-18T05:12:24.671Z,95292
2019-01-18T05:13:34.219Z,95285
2019-01-18T05:14:43.748Z,95298
2019-01-18T05:15:53.275Z,95298
2019-01-18T05:17:02.852Z,95302
2019-01-18T05:18:12.390Z,95304
2019-01-18T05:19:21.911Z,95319
2019-01-18T05:20:31.467Z,95310
2019-01-18T05:21:41.004Z,95308
2019-01-18T05:22:50.521Z,95317
2019-01-18T05:24:00.037Z,95324
2019-01-18T05:25:09.563Z,95316
2019-01-18T05:26:19.067Z,95322
2019-01-18T05:27:28.596Z,95321
2019-01-18T05:28:38.146Z,95319
2019-01-18T05:29:47.677Z,95322
2019-01-18T05:30:57.206Z,95323
2019-01-18T05:32:06.773Z,95328
2019-01-18T05:33:16.301Z,95341
2019-01-18T05:34:25.855Z,95329
2019-01-18T05:35:35.374Z,95337
2019-01-18T05:36:44.904Z,95332
2019-01-18T05:37:54.463Z,95345
2019-01-18T05:39:04.037Z,95341
2019-01-18T05:40:13.567Z,95338
2019-01-18T05:41:23.073Z,95346
2019-01-18T05:42:32.608Z,95349
2019-01-18T05:43:42.136Z,95350
2019-01-18T05:44:51.680Z,95353
2019-01-18T05:46:01.228Z,95360
2019-01-18T05:47:10.792Z,95357
2019-01-18T05:48:20.312Z,95360
2019-01-18T05:49:29.849Z,95364
2019-01-18T05:50:39.369Z,95359
2019-01-18T05:51:48.907Z,95365
2019-01-18T05:52:58.444Z,95366
2019-01-18T05:54:07.963Z,95369
2019-01-18T05:55:17.498Z,95362
2019-01-18T05:56:27.026Z,95383
2019-01-18T05:57:36.594Z,95373
2019-01-18T05:58:46.104Z,95379
2019-01-18T05:59:55.649Z,95376
2019-01-18T06:01:05.184Z,95373
2019-01-18T06:02:14.717Z,95380
2019-01-18T06:03:24.259Z,95383
2019-01-18T06:04:33.785Z,95380
2019-01-18T06:05:43.324Z,95385
2019-01-18T06:06:52.874Z,95392
2019-01-18T06:08:02.439Z,95392
2019-01-18T06:09:11.952Z,95390
2019-01-18T06:10:21.474Z,95393
2019-01-18T06:11:30.966Z,95393
2019-01-18T06:12:40.523Z,95395
2019-01-18T06:13:50.042Z,95400
2019-01-18T06:14:59.552Z,95409
2019-01-18T06:16:09.078Z,95408
2019-01-18T06:17:18.615Z,95395
2019-01-18T06:18:28.126Z,95400
2019-01-18T06:19:37.683Z,95402
2019-01-18T06:20:47.195Z,95406
2019-01-18T06:21:56.717Z,95415
2019-01-18T06:23:06.303Z,95416
2019-01-18T06:24:15.841Z,95411
2019-01-18T06:25:25.405Z,95406
2019-01-18T06:26:34.912Z,95405
2019-01-18T06:27:44.446Z,95410
2019-01-18T06:28:54.000Z,95409
2019-01-18T06:30:03.541Z,95411
2019-01-18T06:31:13.069Z,95411
2019-01-18T06:32:22.604Z,95421
2019-01-18T06:33:32.146Z,95420
2019-01-18T06:34:41.708Z,95422
2019-01-18T06:35:51.239Z,95420
2019-01-18T06:37:00.790Z,95423
2019-01-18T06:38:10.361Z,95429
2019-01-18T06:39:19.882Z,95432
2019-01-18T06:40:29.390Z,95429
2019-01-18T06:41:38.918Z,95436
2019-01-18T06:42:48.450Z,95439
2019-01-18T06:43:57.985Z,95443
2019-01-18T06:45:07.539Z,95446
2019-01-18T06:46:17.093Z,95444
2019-01-18T06:47:26.642Z,95442
2019-01-18T06:48:36.204Z,95445
2019-01-18T06:49:45.750Z,95448
2019-01-18T06:50:55.284Z,95450
2019-01-18T06:52:04.821Z,95448
2019-01-18T06:53:14.383Z,95456
2019-01-18T06:54:23.931Z,95459
2019-01-18T06:55:33.486Z,95459
2019-01-18T06:56:43.026Z,95461
2019-01-18T06:57:52.579Z,95467
2019-01-18T06:59:02.132Z,95466
2019-01-18T07:00:11.649Z,95466
2019-01-18T07:01:21.183Z,95469
2019-01-18T07:02:30.733Z,95474
2019-01-18T07:03:40.256Z,95469
2019-01-18T07:04:49.776Z,95471
2019-01-18T07:06:00.318Z,95474
2019-01-18T07:07:09.878Z,95479
2019-01-18T07:08:19.470Z,95481
2019-01-18T07:09:28.994Z,95483
2019-01-18T07:10:38.522Z,95487
2019-01-18T07:11:48.047Z,95484
2019-01-18T07:12:57.590Z,95487
2019-01-18T07:14:07.127Z,95493
2019-01-18T07:15:16.653Z,95496
2019-01-18T07:16:26.198Z,95502
2019-01-18T07:17:35.751Z,95493
2019-01-18T07:18:45.271Z,95498
2019-01-18T07:19:54.799Z,95497
2019-01-18T07:21:04.337Z,95502
2019-01-18T07:22:13.882Z,95504
2019-01-18T07:23:23.425Z,95502
2019-01-18T07:24:32.984Z,95511
2019-01-18T07:25:42.526Z,95517
2019-01-18T07:26:52.062Z,95513
2019-01-18T07:28:01.611Z,95512
2019-01-18T07:29:11.163Z,95514
2019-01-18T07:30:20.679Z,95514
2019-01-18T07:31:30.188Z,95524
2019-01-18T07:32:39.727Z,95523
2019-01-18T07:33:49.276Z,95522
2019-01-18T07:34:58.826Z,95529
2019-01-18T07:36:08.337Z,95525
2019-01-18T07:37:17.907Z,95534
2019-01-18T07:38:27.445Z,95530
2019-01-18T07:39:36.976Z,95544
2019-01-18T07:40:46.489Z,95534
2019-01-18T07:41:56.038Z,95535
2019-01-18T07:43:05.573Z,95538
2019-01-18T07:44:15.101Z,95536
2019-01-18T07:45:24.640Z,95531
2019-01-18T07:46:34.206Z,95541
2019-01-18T07:47:43.733Z,95536
2019-01-18T07:48:53.267Z,95541
2019-01-18T07:50:02.921Z,95543
2019-01-18T07:51:12.435Z,95542
2019-01-18T07:52:21.958Z,95543
2019-01-18T07:53:31.531Z,95549
2019-01-18T07:54:41.072Z,95553
2019-01-18T07:55:50.593Z,95558
2019-01-18T07:56:59.114Z,95563
2019-01-18T07:58:08.635Z,95559
2019-01-18T07:59:18.162Z,95558
2019-01-18T08:00:27.716Z,95563
2019-01-18T08:01:37.259Z,95565
2019-01-18T08:02:46.799Z,95557
2019-01-18T08:03:56.340Z,95559
2019-01-18T08:05:05.858Z,95556
2019-01-18T08:06:15.432Z,95566
2019-01-18T08:07:24.969Z,95570
2019-01-18T08:08:34.491Z,95567
2019-01-18T08:09:45.065Z,95572
2019-01-18T08:10:54.566Z,95574
2019-01-18T08:12:04.082Z,95577
2019-01-18T08:13:13.624Z,95578
2019-01-18T08:14:23.136Z,95575
2019-01-18T08:15:32.658Z,95579
2019-01-18T08:16:43.568Z,95579
2019-01-18T08:17:51.753Z,95580
2019-01-18T08:19:01.316Z,95585
2019-01-18T08:20:10.848Z,95586
2019-01-18T08:21:20.398Z,95589
2019-01-18T08:22:29.935Z,95586
2019-01-18T08:23:39.470Z,95590
2019-01-18T08:24:49.002Z,95590
2019-01-18T08:25:58.524Z,95594
2019-01-18T08:27:08.081Z,95593
2019-01-18T08:28:17.653Z,95600
2019-01-18T08:29:27.177Z,95593
2019-01-18T08:30:36.711Z,95600
2019-01-18T08:31:46.248Z,95603
2019-01-18T08:32:55.786Z,95606
2019-01-18T08:34:05.329Z,95609
2019-01-18T08:35:14.848Z,95614
2019-01-18T08:36:24.380Z,95609
2019-01-18T08:37:33.879Z,95608
2019-01-18T08:38:43.410Z,95610
2019-01-18T08:39:52.940Z,95617
2019-01-18T08:41:02.466Z,95612
2019-01-18T08:42:12.010Z,95611
2019-01-18T08:43:21.523Z,95619
2019-01-18T08:44:31.054Z,95615
2019-01-18T08:45:40.576Z,95614
2019-01-18T08:46:50.092Z,95619
2019-01-18T08:47:59.616Z,95612
2019-01-18T08:49:09.166Z,95606
2019-01-18T08:50:18.682Z,95618
2019-01-18T08:51:28.214Z,95625
2019-01-18T08:52:37.752Z,95619
2019-01-18T08:53:47.335Z,95628
2019-01-18T08:54:56.836Z,95629
2019-01-18T08:56:06.381Z,95629
2019-01-18T08:57:15.961Z,95632
2019-01-18T08:58:25.494Z,95628
2019-01-18T08:59:35.030Z,95632
2019-01-18T09:00:44.568Z,95641
2019-01-18T09:01:54.088Z,95632
2019-01-18T09:03:03.605Z,95633
2019-01-18T09:04:13.153Z,95631
2019-01-18T09:05:22.673Z,95631
2019-01-18T09:06:32.190Z,95635
2019-01-18T09:07:42.029Z,95635
2019-01-18T09:08:51.581Z,95641
2019-01-18T09:10:01.333Z,95627
2019-01-18T09:11:10.882Z,95640
2019-01-18T09:12:20.562Z,95636
2019-01-18T09:13:32.584Z,95631
2019-01-18T09:14:43.984Z,95631
2019-01-18T09:15:53.566Z,95634
2019-01-18T09:17:03.116Z,95639
2019-01-18T09:18:12.708Z,95641
2019-01-18T09:19:22.330Z,95636
2019-01-18T09:20:31.924Z,95639
2019-01-18T09:21:42.444Z,95646
2019-01-18T09:22:51.961Z,95647
2019-01-18T09:24:01.525Z,95644
2019-01-18T09:25:11.052Z,95651
2019-01-18T09:26:20.585Z,95649
2019-01-18T09:27:30.122Z,95651
2019-01-18T09:28:39.697Z,95653
2019-01-18T09:29:49.307Z,95652
2019-01-18T09:30:58.857Z,95659
2019-01-18T09:32:08.396Z,95659
2019-01-18T09:33:18.488Z,95658
2019-01-18T09:34:29.696Z,95659
2019-01-18T09:35:39.247Z,95659
2019-01-18T09:36:48.782Z,95659
2019-01-18T09:37:58.856Z,95659
2019-01-18T09:39:10.118Z,95665
2019-01-18T09:40:19.768Z,95660
2019-01-18T09:41:30.805Z,95670
2019-01-18T09:42:40.137Z,95669
2019-01-18T09:43:49.714Z,95672
2019-01-18T09:44:59.250Z,95669
2019-01-18T09:46:08.780Z,95667
2019-01-18T09:47:18.378Z,95670
2019-01-18T09:48:27.961Z,95673
2019-01-18T09:49:37.544Z,95672
2019-01-18T09:50:47.043Z,95672
2019-01-18T09:51:56.643Z,95669
2019-01-18T09:53:06.178Z,95670
2019-01-18T09:54:15.742Z,95669
2019-01-18T09:55:25.280Z,95670
2019-01-18T09:56:34.800Z,95669
2019-01-18T09:57:44.325Z,95672
2019-01-18T09:58:53.877Z,95667
2019-01-18T10:00:03.437Z,95670
2019-01-18T10:01:13.019Z,95675
2019-01-18T10:02:22.601Z,95671
2019-01-18T10:03:32.176Z,95673
2019-01-18T10:04:41.705Z,95672
2019-01-18T10:05:51.237Z,95672
2019-01-18T10:07:00.769Z,95671
2019-01-18T10:08:10.300Z,95668
2019-01-18T10:09:19.854Z,95667
2019-01-18T10:10:29.406Z,95676
2019-01-18T10:11:38.966Z,95672
2019-01-18T10:12:48.563Z,95672
2019-01-18T10:13:58.092Z,95669
2019-01-18T10:15:06.626Z,95673
2019-01-18T10:16:16.172Z,95665
2019-01-18T10:17:25.687Z,95674
2019-01-18T10:18:35.218Z,95667
2019-01-18T10:19:44.806Z,95671
2019-01-18T10:20:54.342Z,95674
2019-01-18T10:22:03.878Z,95673
2019-01-18T10:23:13.391Z,95673
2019-01-18T10:24:22.937Z,95669
2019-01-18T10:25:32.471Z,95668
2019-01-18T10:26:42.025Z,95669
2019-01-18T10:27:51.592Z,95662
2019-01-18T10:29:01.159Z,95663
2019-01-18T10:30:10.712Z,95661
2019-01-18T10:31:20.250Z,95659
2019-01-18T10:32:29.799Z,95659
2019-01-18T10:33:39.349Z,95659
2019-01-18T10:34:48.910Z,95658
2019-01-18T10:35:58.423Z,95655
2019-01-18T10:37:07.972Z,95661
2019-01-18T10:38:17.538Z,95656
2019-01-18T10:39:27.080Z,95659
2019-01-18T10:40:36.591Z,95659
2019-01-18T10:41:46.109Z,95653
2019-01-18T10:42:55.691Z,95654
2019-01-18T10:44:05.993Z,95649
2019-01-18T10:45:15.709Z,95650
2019-01-18T10:46:25.256Z,95652
2019-01-18T10:47:34.788Z,95652
2019-01-18T10:48:44.333Z,95647
2019-01-18T10:49:53.912Z,95653
2019-01-18T10:51:03.482Z,95647
2019-01-18T10:52:13.012Z,95647
2019-01-18T10:53:22.556Z,95650
2019-01-18T10:54:32.114Z,95646
2019-01-18T10:55:41.620Z,95650
2019-01-18T10:56:51.172Z,95649
2019-01-18T10:58:00.721Z,95653
2019-01-18T10:59:10.241Z,95648
2019-01-18T11:00:19.811Z,95645
2019-01-18T11:01:29.364Z,95646
2019-01-18T11:02:38.869Z,95646
2019-01-18T11:03:48.399Z,95643
2019-01-18T11:04:58.965Z,95643
2019-01-18T11:06:08.488Z,95647
2019-01-18T11:07:18.008Z,95643
2019-01-18T11:08:27.838Z,95643
2019-01-18T11:09:37.119Z,95640
2019-01-18T11:10:46.640Z,95636
2019-01-18T11:11:56.144Z,95639
2019-01-18T11:13:05.666Z,95638
2019-01-18T11:14:15.161Z,95643
2019-01-18T11:15:24.698Z,95639
2019-01-18T11:16:34.278Z,95640
2019-01-18T11:17:43.820Z,95645
2019-01-18T11:18:53.348Z,95639
2019-01-18T11:20:03.014Z,95639
2019-01-18T11:21:12.583Z,95637
2019-01-18T11:22:22.097Z,95636
2019-01-18T11:23:31.633Z,95635
2019-01-18T11:24:41.183Z,95635
2019-01-18T11:25:50.712Z,95632
2019-01-18T11:27:00.463Z,95629
2019-01-18T11:28:10.012Z,95637
2019-01-18T11:29:19.561Z,95640
2019-01-18T11:30:29.117Z,95634
2019-01-18T11:31:38.649Z,95629
2019-01-18T11:32:48.171Z,95637
2019-01-18T11:33:57.689Z,95633
2019-01-18T11:35:07.216Z,95635
2019-01-18T11:36:16.803Z,95636
2019-01-18T11:37:26.314Z,95639
2019-01-18T11:38:35.876Z,95644
2019-01-18T11:39:45.447Z,95642
2019-01-18T11:40:54.990Z,95634
2019-01-18T11:42:05.378Z,95640
2019-01-18T11:43:14.071Z,95642
2019-01-18T11:44:23.617Z,95641
2019-01-18T11:45:33.167Z,95639
2019-01-18T11:46:42.711Z,95639
2019-01-18T11:47:52.232Z,95637
2019-01-18T11:49:01.859Z,95644
2019-01-18T11:50:11.406Z,95640
2019-01-18T11:51:20.021Z,95641
2019-01-18T11:52:29.551Z,95638
2019-01-18T11:53:39.073Z,95642
2019-01-18T11:54:48.601Z,95642
2019-01-18T11:55:58.130Z,95635
2019-01-18T11:57:07.712Z,95630
2019-01-18T11:58:17.274Z,95633
2019-01-18T11:59:26.870Z,95631
2019-01-18T12:00:37.826Z,95629
2019-01-18T12:01:45.947Z,95631
2019-01-18T12:02:54.473Z,95635
2019-01-18T12:04:04.000Z,95629
2019-01-18T12:05:13.563Z,95632
2019-01-18T12:06:23.143Z,95625
2019-01-18T12:07:31.680Z,95629
2019-01-18T12:08:41.966Z,95627
2019-01-18T12:09:50.897Z,95624
2019-01-18T12:11:00.426Z,95617
2019-01-18T12:12:09.926Z,95620
2019-01-18T12:13:19.474Z,95624
2019-01-18T12:14:29.166Z,95619
2019-01-18T12:15:38.753Z,95626
2019-01-18T12:16:48.303Z,95620
2019-01-18T12:17:57.846Z,95620
2019-01-18T12:19:07.401Z,95624
2019-01-18T12:20:16.937Z,95616
2019-01-18T12:21:26.504Z,95619
2019-01-18T12:22:37.013Z,95613
2019-01-18T12:23:46.541Z,95615
2019-01-18T12:24:56.060Z,95616
2019-01-18T12:26:05.613Z,95619
2019-01-18T12:27:15.146Z,95617
2019-01-18T12:28:24.640Z,95615
2019-01-18T12:29:34.154Z,95616
2019-01-18T12:30:43.723Z,95615
2019-01-18T12:31:53.233Z,95620
2019-01-18T12:33:02.836Z,95613
2019-01-18T12:34:12.364Z,95619
2019-01-18T12:35:21.927Z,95613
2019-01-18T12:36:31.477Z,95612
2019-01-18T12:37:41.992Z,95606
2019-01-18T12:38:51.497Z,95607
2019-01-18T12:40:01.013Z,95604
2019-01-18T12:41:10.615Z,95606
2019-01-18T12:42:20.120Z,95603
2019-01-18T12:43:29.640Z,95608
2019-01-18T12:44:39.151Z,95603
2019-01-18T12:45:48.691Z,95604
2019-01-18T12:46:58.258Z,95602
2019-01-18T12:48:07.782Z,95600
2019-01-18T12:49:17.312Z,95603
2019-01-18T12:50:26.937Z,95604
2019-01-18T12:51:36.451Z,95601
2019-01-18T12:52:45.977Z,95610
2019-01-18T12:53:55.516Z,95601
2019-01-18T12:55:05.070Z,95606
2019-01-18T12:56:14.614Z,95604
2019-01-18T12:57:24.148Z,95605
2019-01-18T12:58:33.694Z,95604
2019-01-18T12:59:43.220Z,95603
2019-01-18T13:00:52.756Z,95608
2019-01-18T13:02:02.274Z,95608
2019-01-18T13:03:11.817Z,95610
2019-01-18T13:04:21.337Z,95606
2019-01-18T13:05:30.939Z,95607
2019-01-18T13:06:40.471Z,95608
2019-01-18T13:07:51.016Z,95612
2019-01-18T13:09:00.523Z,95612
2019-01-18T13:10:12.001Z,95616
2019-01-18T13:11:19.593Z,95609
2019-01-18T13:12:29.142Z,95609
2019-01-18T13:13:38.712Z,95610
2019-01-18T13:14:48.264Z,95608
2019-01-18T13:15:58.892Z,95607
2019-01-18T13:17:08.450Z,95600
2019-01-18T13:18:18.070Z,95607
2019-01-18T13:19:27.655Z,95609
2019-01-18T13:20:38.258Z,95606
2019-01-18T13:21:47.843Z,95605
2019-01-18T13:22:57.437Z,95602
2019-01-18T13:24:07.168Z,95598
2019-01-18T13:25:16.531Z,95599
2019-01-18T13:26:26.105Z,95598
2019-01-18T13:27:35.698Z,95591
2019-01-18T13:28:45.227Z,95593
2019-01-18T13:29:54.749Z,95591
2019-01-18T13:31:04.298Z,95595
2019-01-18T13:32:13.855Z,95595
2019-01-18T13:33:23.385Z,95597
2019-01-18T13:34:32.950Z,95597
2019-01-18T13:35:42.466Z,95592
2019-01-18T13:36:52.008Z,95592
2019-01-18T13:38:01.532Z,95590
2019-01-18T13:39:11.082Z,95592
2019-01-18T13:40:20.607Z,95595
2019-01-18T13:41:30.151Z,95595
2019-01-18T13:42:39.666Z,95598
2019-01-18T13:43:49.198Z,95597
2019-01-18T13:44:58.738Z,95600
2019-01-18T13:46:08.343Z,95599
2019-01-18T13:47:18.326Z,95597
2019-01-18T13:48:27.490Z,95600
2019-01-18T13:49:37.113Z,95596
2019-01-18T13:50:46.873Z,95595
2019-01-18T13:51:56.599Z,95593
2019-01-18T13:53:06.138Z,95596
2019-01-18T13:54:15.686Z,95593
2019-01-18T13:55:25.269Z,95589
2019-01-18T13:56:34.797Z,95594
2019-01-18T13:57:44.374Z,95592
2019-01-18T13:58:53.910Z,95596
2019-01-18T14:00:03.424Z,95591
2019-01-18T14:01:12.981Z,95596
2019-01-18T14:02:22.520Z,95593
2019-01-18T14:03:32.043Z,95595
2019-01-18T14:04:41.624Z,95595
2019-01-18T14:05:51.185Z,95597
2019-01-18T14:07:00.755Z,95597
2019-01-18T14:08:10.347Z,95600
2019-01-18T14:09:19.882Z,95597
2019-01-18T14:10:29.415Z,95603
2019-01-18T14:11:38.956Z,95604
2019-01-18T14:12:49.518Z,95609
2019-01-18T14:13:59.021Z,95607
2019-01-18T14:15:08.541Z,95608
2019-01-18T14:16:18.067Z,95609
2019-01-18T14:17:27.642Z,95608
2019-01-18T14:18:37.173Z,95608
2019-01-18T14:19:46.700Z,95604
2019-01-18T14:20:56.219Z,95610
2019-01-18T14:22:05.787Z,95609
2019-01-18T14:23:15.316Z,95612
2019-01-18T14:24:24.908Z,95607
2019-01-18T14:25:34.430Z,95608
2019-01-18T14:26:44.085Z,95609
2019-01-18T14:27:53.658Z,95615
2019-01-18T14:29:03.218Z,95617
2019-01-18T14:30:12.808Z,95616
2019-01-18T14:31:22.412Z,95620
2019-01-18T14:32:32.016Z,95621
2019-01-18T14:33:41.652Z,95627
2019-01-18T14:34:51.191Z,95628
2019-01-18T14:36:00.738Z,95627
2019-01-18T14:37:10.333Z,95631
2019-01-18T14:38:25.030Z,95628
2019-01-18T14:39:29.380Z,95629
2019-01-18T14:40:38.948Z,95627
2019-01-18T14:41:48.554Z,95626
2019-01-18T14:42:58.081Z,95623
2019-01-18T14:44:07.666Z,95626
2019-01-18T14:45:17.275Z,95624
2019-01-18T14:46:26.855Z,95625
2019-01-18T14:47:36.412Z,95623
2019-01-18T14:48:45.978Z,95618
2019-01-18T14:49:55.509Z,95625
2019-01-18T14:51:05.099Z,95629
2019-01-18T14:52:14.665Z,95628
2019-01-18T14:53:24.198Z,95624
2019-01-18T14:54:33.748Z,95628
2019-01-18T14:55:43.249Z,95628